createdAt,value
2022-09-12T00:01:39.265Z,318.88
2022-09-12T00:08:41.049Z,313.58
2022-09-12T00:15:43.471Z,314.90
2022-09-12T00:22:45.056Z,317.42
2022-09-12T00:29:46.624Z,318.52
2022-09-12T00:36:48.186Z,331.08
2022-09-12T00:43:54.438Z,360.30
2022-09-12T00:50:55.981Z,371.45
2022-09-12T00:58:00.064Z,423.38
2022-09-12T01:05:01.620Z,313.15
2022-09-12T01:12:03.720Z,322.27
2022-09-12T01:19:08.182Z,408.13
2022-09-12T01:26:43.108Z,346.42
2022-09-12T01:33:50.668Z,290.17
2022-09-12T01:41:05.576Z,277.90
2022-09-12T01:48:20.265Z,279.75
2022-09-12T01:55:34.934Z,280.40
2022-09-12T02:03:10.299Z,341.33
2022-09-12T02:10:17.340Z,349.98
2022-09-12T02:17:21.115Z,342.77
2022-09-12T02:24:24.475Z,340.73
2022-09-12T02:31:31.342Z,346.83
2022-09-12T02:38:38.061Z,353.40
2022-09-12T02:45:39.731Z,363.73
2022-09-12T02:52:41.448Z,347.60
2022-09-12T02:59:42.993Z,352.23
2022-09-12T03:06:55.430Z,355.55
2022-09-12T03:14:16.821Z,359.83
2022-09-12T03:21:53.674Z,374.58
2022-09-12T03:28:55.223Z,400.17
2022-09-12T03:35:56.775Z,410.08
2022-09-12T03:42:58.410Z,370.02
2022-09-12T03:50:00.022Z,348.92
2022-09-12T03:57:01.590Z,369.13
2022-09-12T04:04:03.227Z,369.50
2022-09-12T04:11:05.778Z,362.17
2022-09-12T04:18:07.340Z,397.83
2022-09-12T04:25:09.538Z,391.90
2022-09-12T04:32:11.123Z,367.27
2022-09-12T04:39:12.753Z,378.52
2022-09-12T04:46:16.641Z,392.52
2022-09-12T04:53:18.183Z,416.13
2022-09-12T05:00:20.513Z,448.00
2022-09-12T05:07:22.065Z,271.88
2022-09-12T05:14:23.715Z,263.08
2022-09-12T05:21:25.415Z,242.95
2022-09-12T05:28:31.742Z,242.35
2022-09-12T05:35:33.964Z,261.00
2022-09-12T05:42:36.774Z,251.85
2022-09-12T05:49:38.438Z,258.60
2022-09-12T05:56:41.546Z,248.85
2022-09-12T06:03:44.644Z,267.33
2022-09-12T06:10:46.214Z,261.02
2022-09-12T06:17:51.378Z,243.07
2022-09-12T06:24:57.770Z,223.38
2022-09-12T06:31:59.573Z,215.80
2022-09-12T06:39:05.423Z,223.77
2022-09-12T06:46:07.526Z,229.15
2022-09-12T06:53:09.676Z,234.35
2022-09-12T07:00:11.931Z,249.30
2022-09-12T07:07:14.613Z,247.05
2022-09-12T07:14:19.081Z,256.80
2022-09-12T07:21:20.705Z,229.77
2022-09-12T07:28:22.358Z,237.80
2022-09-12T07:35:23.954Z,288.63
2022-09-12T07:42:25.578Z,434.65
2022-09-12T07:49:27.163Z,451.67
2022-09-12T07:56:32.733Z,435.67
2022-09-12T08:03:36.680Z,429.10
2022-09-12T08:10:38.260Z,429.92
2022-09-12T08:17:41.211Z,435.67
2022-09-12T08:24:43.737Z,454.00
2022-09-12T08:31:46.314Z,535.40
2022-09-12T08:38:49.304Z,647.60
2022-09-12T08:45:54.597Z,546.47
2022-09-12T08:53:06.337Z,520.55
2022-09-12T09:00:13.099Z,522.30
2022-09-12T09:07:52.285Z,505.65
2022-09-12T09:15:02.776Z,480.23
2022-09-12T09:22:11.990Z,478.65
2022-09-12T09:29:14.996Z,475.73
2022-09-12T09:36:22.451Z,454.65
2022-09-12T09:43:25.390Z,433.55
2022-09-12T09:50:27.326Z,421.33
2022-09-12T09:57:34.757Z,424.27
2022-09-12T10:04:41.385Z,427.52
2022-09-12T10:11:45.902Z,418.75
2022-09-12T10:18:47.932Z,385.30
2022-09-12T10:25:53.802Z,298.75
2022-09-12T10:33:06.074Z,179.07
2022-09-12T10:40:20.309Z,166.73
2022-09-12T10:47:23.943Z,151.63
2022-09-12T10:54:26.766Z,132.05
2022-09-12T11:02:05.460Z,149.65
2022-09-12T11:09:21.045Z,167.77
2022-09-12T11:16:31.727Z,147.48
2022-09-12T11:24:10.895Z,138.63
2022-09-12T11:31:35.512Z,99.15
2022-09-12T11:38:48.121Z,111.75
2022-09-12T11:45:49.776Z,103.38
2022-09-12T11:52:51.397Z,90.78
2022-09-12T12:00:12.366Z,77.47
2022-09-12T12:07:15.304Z,81.40
2022-09-12T12:14:42.428Z,76.75
2022-09-12T12:21:45.279Z,61.40
2022-09-12T12:28:50.604Z,44.45
2022-09-12T12:36:03.273Z,33.83
2022-09-12T12:43:05.309Z,48.42
2022-09-12T12:50:26.068Z,28.50
2022-09-12T12:57:31.954Z,32.92
2022-09-12T13:04:33.920Z,34.40
2022-09-12T13:11:37.137Z,39.47
2022-09-12T13:18:47.083Z,42.83
2022-09-12T13:25:53.116Z,41.33
2022-09-12T13:32:57.501Z,116.95
2022-09-12T13:40:24.107Z,68.38
2022-09-12T13:47:28.531Z,82.32
2022-09-12T13:54:30.172Z,100.35
2022-09-12T14:01:39.718Z,116.13
2022-09-12T14:08:41.515Z,152.43
2022-09-12T14:15:48.151Z,147.18
2022-09-12T14:22:52.881Z,154.82
2022-09-12T14:30:25.104Z,165.27
2022-09-12T14:37:26.725Z,191.45
2022-09-12T14:44:28.422Z,191.65
2022-09-12T14:51:40.814Z,216.65
2022-09-12T14:58:42.475Z,206.20
2022-09-12T15:05:49.856Z,195.00
2022-09-12T15:13:10.662Z,196.07
2022-09-12T15:20:12.653Z,210.00
2022-09-12T15:27:14.230Z,190.30
2022-09-12T15:34:15.782Z,205.50
2022-09-12T15:41:21.178Z,194.93
2022-09-12T15:48:22.715Z,199.32
2022-09-12T15:55:29.379Z,200.57
2022-09-12T16:02:31.014Z,203.60
2022-09-12T16:09:32.697Z,197.90
2022-09-12T16:16:34.866Z,195.48
2022-09-12T16:23:36.620Z,204.35
2022-09-12T16:30:38.231Z,203.75
2022-09-12T16:37:39.847Z,209.75
2022-09-12T16:44:41.736Z,220.20
2022-09-12T16:51:47.344Z,229.55
2022-09-12T16:58:49.084Z,232.52
2022-09-12T17:06:02.466Z,251.90
2022-09-12T17:13:04.283Z,291.40
2022-09-12T17:20:06.052Z,367.88
2022-09-12T17:27:07.823Z,370.80
2022-09-12T17:34:09.463Z,381.67
2022-09-12T17:41:18.488Z,372.92
2022-09-12T17:48:20.394Z,388.73
2022-09-12T17:55:21.933Z,376.10
2022-09-12T18:02:23.630Z,370.20
2022-09-12T18:09:25.366Z,366.48
2022-09-12T18:16:28.135Z,353.55
2022-09-12T18:23:29.728Z,360.13
2022-09-12T18:30:31.285Z,367.67
2022-09-12T18:37:33.087Z,363.25
2022-09-12T18:44:34.724Z,363.05
2022-09-12T18:51:36.542Z,390.52
2022-09-12T18:58:38.976Z,396.08
2022-09-12T19:05:40.546Z,365.95
2022-09-12T19:12:42.103Z,351.33
2022-09-12T19:19:43.812Z,347.85
2022-09-12T19:26:45.379Z,368.02
2022-09-12T19:33:47.148Z,340.63
2022-09-12T19:40:58.788Z,330.60
2022-09-12T19:48:00.310Z,348.20
2022-09-12T19:55:01.866Z,346.05
2022-09-12T20:02:03.892Z,354.15
2022-09-12T20:09:05.650Z,344.85
2022-09-12T20:16:10.991Z,367.48
2022-09-12T20:23:12.538Z,377.33
2022-09-12T20:30:14.727Z,355.00
2022-09-12T20:37:16.431Z,354.83
2022-09-12T20:44:17.998Z,357.85
2022-09-12T20:51:20.248Z,361.77
2022-09-12T20:58:22.200Z,361.83
2022-09-12T21:05:23.776Z,348.35
2022-09-12T21:12:27.547Z,357.65
2022-09-12T21:19:29.120Z,364.00
2022-09-12T21:26:30.841Z,357.77
2022-09-12T21:33:32.387Z,367.25
2022-09-12T21:40:33.966Z,372.27
2022-09-12T21:47:35.747Z,374.77
2022-09-12T21:54:37.304Z,370.52
2022-09-12T22:01:38.914Z,371.77
2022-09-12T22:08:40.626Z,389.23
2022-09-12T22:15:50.246Z,373.45
2022-09-12T22:23:10.423Z,380.50
2022-09-12T22:30:12.322Z,381.58
2022-09-12T22:37:14.053Z,383.17
2022-09-12T22:44:17.653Z,387.77
2022-09-12T22:51:19.239Z,388.13
2022-09-12T22:58:21.076Z,410.98
2022-09-12T23:05:22.691Z,416.40
2022-09-12T23:12:24.292Z,430.10
2022-09-12T23:19:25.907Z,465.55
2022-09-12T23:26:30.315Z,503.27
2022-09-12T23:33:31.997Z,452.63
2022-09-12T23:40:33.681Z,465.40
2022-09-12T23:47:35.225Z,461.10
2022-09-12T23:54:36.948Z,398.40
